sensor_id;sensor_type;location;lat;lon;timestamp;temperature;humidity
48994;DHT22;34804;49.214;12.276;2022-10-10T00:01:35;7.10;91.20
48994;DHT22;34804;49.214;12.276;2022-10-10T00:04:04;7.10;90.70
48994;DHT22;34804;49.214;12.276;2022-10-10T00:06:31;7.20;90.80
48994;DHT22;34804;49.214;12.276;2022-10-10T00:09:00;7.10;90.60
48994;DHT22;34804;49.214;12.276;2022-10-10T00:11:27;7.10;90.60
48994;DHT22;34804;49.214;12.276;2022-10-10T00:13:54;7.10;90.70
48994;DHT22;34804;49.214;12.276;2022-10-10T00:16:20;7.10;91.10
48994;DHT22;34804;49.214;12.276;2022-10-10T00:18:48;7.10;91.00
48994;DHT22;34804;49.214;12.276;2022-10-10T00:21:15;7.10;91.00
48994;DHT22;34804;49.214;12.276;2022-10-10T00:23:42;7.10;91.00
48994;DHT22;34804;49.214;12.276;2022-10-10T00:26:09;7.10;91.00
48994;DHT22;34804;49.214;12.276;2022-10-10T00:28:44;7.10;90.80
48994;DHT22;34804;49.214;12.276;2022-10-10T00:31:10;7.00;90.70
48994;DHT22;34804;49.214;12.276;2022-10-10T00:33:37;7.00;91.10
48994;DHT22;34804;49.214;12.276;2022-10-10T00:36:05;7.00;90.70
48994;DHT22;34804;49.214;12.276;2022-10-10T00:38:32;6.90;90.90
48994;DHT22;34804;49.214;12.276;2022-10-10T00:41:00;6.90;91.00
48994;DHT22;34804;49.214;12.276;2022-10-10T00:43:27;6.90;90.90
48994;DHT22;34804;49.214;12.276;2022-10-10T00:45:54;6.80;91.10
48994;DHT22;34804;49.214;12.276;2022-10-10T00:48:28;6.90;91.20
48994;DHT22;34804;49.214;12.276;2022-10-10T00:51:08;6.90;91.10
48994;DHT22;34804;49.214;12.276;2022-10-10T00:53:40;6.80;91.10
48994;DHT22;34804;49.214;12.276;2022-10-10T00:56:08;6.80;91.40
48994;DHT22;34804;49.214;12.276;2022-10-10T00:58:40;6.70;91.60
48994;DHT22;34804;49.214;12.276;2022-10-10T01:01:08;6.60;91.90
48994;DHT22;34804;49.214;12.276;2022-10-10T01:03:35;6.60;92.00
48994;DHT22;34804;49.214;12.276;2022-10-10T01:06:03;6.70;92.30
48994;DHT22;34804;49.214;12.276;2022-10-10T01:08:30;6.70;92.00
48994;DHT22;34804;49.214;12.276;2022-10-10T01:11:33;6.70;92.00
48994;DHT22;34804;49.214;12.276;2022-10-10T01:14:08;6.70;91.80
48994;DHT22;34804;49.214;12.276;2022-10-10T01:16:58;6.60;91.60
48994;DHT22;34804;49.214;12.276;2022-10-10T01:19:53;6.60;91.70
48994;DHT22;34804;49.214;12.276;2022-10-10T01:25:21;6.50;91.90
48994;DHT22;34804;49.214;12.276;2022-10-10T01:30:40;6.60;92.20
48994;DHT22;34804;49.214;12.276;2022-10-10T01:33:12;6.60;91.90
48994;DHT22;34804;49.214;12.276;2022-10-10T01:35:52;6.60;91.90
48994;DHT22;34804;49.214;12.276;2022-10-10T01:38:31;6.50;92.00
48994;DHT22;34804;49.214;12.276;2022-10-10T01:41:16;6.50;92.00
48994;DHT22;34804;49.214;12.276;2022-10-10T01:43:44;6.60;92.10
48994;DHT22;34804;49.214;12.276;2022-10-10T01:46:17;6.60;92.10
48994;DHT22;34804;49.214;12.276;2022-10-10T01:48:45;6.50;92.10
48994;DHT22;34804;49.214;12.276;2022-10-10T01:53:48;6.60;91.90
48994;DHT22;34804;49.214;12.276;2022-10-10T02:02:22;6.40;91.40
48994;DHT22;34804;49.214;12.276;2022-10-10T02:04:57;6.40;91.70
48994;DHT22;34804;49.214;12.276;2022-10-10T02:07:26;6.40;91.70
48994;DHT22;34804;49.214;12.276;2022-10-10T02:09:54;6.40;91.90
48994;DHT22;34804;49.214;12.276;2022-10-10T02:12:23;6.40;92.00
48994;DHT22;34804;49.214;12.276;2022-10-10T02:14:57;6.30;91.90
48994;DHT22;34804;49.214;12.276;2022-10-10T02:17:25;6.40;91.90
48994;DHT22;34804;49.214;12.276;2022-10-10T02:19:56;6.40;91.90
48994;DHT22;34804;49.214;12.276;2022-10-10T02:22:26;6.40;91.90
48994;DHT22;34804;49.214;12.276;2022-10-10T02:24:54;6.40;91.90
48994;DHT22;34804;49.214;12.276;2022-10-10T02:28:04;6.40;92.00
48994;DHT22;34804;49.214;12.276;2022-10-10T02:30:29;6.40;92.10
48994;DHT22;34804;49.214;12.276;2022-10-10T02:33:00;6.40;91.90
48994;DHT22;34804;49.214;12.276;2022-10-10T02:35:33;6.40;92.00
48994;DHT22;34804;49.214;12.276;2022-10-10T02:38:01;6.30;91.70
48994;DHT22;34804;49.214;12.276;2022-10-10T02:40:31;6.30;91.70
48994;DHT22;34804;49.214;12.276;2022-10-10T02:43:00;6.20;91.90
48994;DHT22;34804;49.214;12.276;2022-10-10T02:45:29;6.20;91.90
48994;DHT22;34804;49.214;12.276;2022-10-10T02:47:56;6.10;91.80
48994;DHT22;34804;49.214;12.276;2022-10-10T02:50:23;6.20;92.10
48994;DHT22;34804;49.214;12.276;2022-10-10T02:52:50;6.10;92.00
48994;DHT22;34804;49.214;12.276;2022-10-10T02:55:17;6.10;92.20
48994;DHT22;34804;49.214;12.276;2022-10-10T02:57:44;6.10;92.00
48994;DHT22;34804;49.214;12.276;2022-10-10T03:00:11;6.10;92.20
48994;DHT22;34804;49.214;12.276;2022-10-10T03:02:38;6.10;92.00
48994;DHT22;34804;49.214;12.276;2022-10-10T03:05:05;6.10;92.00
48994;DHT22;34804;49.214;12.276;2022-10-10T03:07:32;6.10;92.00
48994;DHT22;34804;49.214;12.276;2022-10-10T03:09:59;6.10;91.90
48994;DHT22;34804;49.214;12.276;2022-10-10T03:12:26;6.00;92.20
48994;DHT22;34804;49.214;12.276;2022-10-10T03:14:52;6.10;92.30
48994;DHT22;34804;49.214;12.276;2022-10-10T03:17:19;6.10;92.30
48994;DHT22;34804;49.214;12.276;2022-10-10T03:19:46;6.10;91.90
48994;DHT22;34804;49.214;12.276;2022-10-10T03:22:13;5.90;92.00
48994;DHT22;34804;49.214;12.276;2022-10-10T03:24:39;5.90;92.20
48994;DHT22;34804;49.214;12.276;2022-10-10T03:27:06;5.90;92.40
48994;DHT22;34804;49.214;12.276;2022-10-10T03:29:33;5.90;92.30
48994;DHT22;34804;49.214;12.276;2022-10-10T03:32:01;5.90;92.30
48994;DHT22;34804;49.214;12.276;2022-10-10T03:34:28;5.90;92.20
48994;DHT22;34804;49.214;12.276;2022-10-10T03:36:55;5.80;91.70
48994;DHT22;34804;49.214;12.276;2022-10-10T03:39:22;5.80;92.10
48994;DHT22;34804;49.214;12.276;2022-10-10T03:41:48;5.80;92.10
48994;DHT22;34804;49.214;12.276;2022-10-10T03:44:16;5.70;91.90
48994;DHT22;34804;49.214;12.276;2022-10-10T03:46:43;5.60;92.20
48994;DHT22;34804;49.214;12.276;2022-10-10T03:49:10;5.60;92.60
48994;DHT22;34804;49.214;12.276;2022-10-10T03:51:37;5.60;92.80
48994;DHT22;34804;49.214;12.276;2022-10-10T03:54:04;5.60;92.80
48994;DHT22;34804;49.214;12.276;2022-10-10T03:56:30;5.60;92.90
48994;DHT22;34804;49.214;12.276;2022-10-10T03:58:57;5.60;92.90
48994;DHT22;34804;49.214;12.276;2022-10-10T04:01:27;5.60;92.50
48994;DHT22;34804;49.214;12.276;2022-10-10T04:03:54;5.50;92.40
48994;DHT22;34804;49.214;12.276;2022-10-10T04:06:21;5.50;92.20
48994;DHT22;34804;49.214;12.276;2022-10-10T04:08:48;5.50;92.30
48994;DHT22;34804;49.214;12.276;2022-10-10T04:11:14;5.50;92.70
48994;DHT22;34804;49.214;12.276;2022-10-10T04:13:41;5.50;92.70
48994;DHT22;34804;49.214;12.276;2022-10-10T04:16:08;5.50;92.80
48994;DHT22;34804;49.214;12.276;2022-10-10T04:18:35;5.50;92.50
48994;DHT22;34804;49.214;12.276;2022-10-10T04:21:05;5.40;92.30
48994;DHT22;34804;49.214;12.276;2022-10-10T04:23:32;5.40;92.50
48994;DHT22;34804;49.214;12.276;2022-10-10T04:25:58;5.40;92.50
48994;DHT22;34804;49.214;12.276;2022-10-10T04:28:25;5.50;92.60
48994;DHT22;34804;49.214;12.276;2022-10-10T04:30:52;5.50;92.20
48994;DHT22;34804;49.214;12.276;2022-10-10T04:33:21;5.40;92.30
48994;DHT22;34804;49.214;12.276;2022-10-10T04:35:48;5.40;92.50
48994;DHT22;34804;49.214;12.276;2022-10-10T04:38:16;5.40;92.70
48994;DHT22;34804;49.214;12.276;2022-10-10T04:40:46;5.40;93.10
48994;DHT22;34804;49.214;12.276;2022-10-10T04:43:13;5.40;92.90
48994;DHT22;34804;49.214;12.276;2022-10-10T04:45:40;5.40;92.90
48994;DHT22;34804;49.214;12.276;2022-10-10T04:48:06;5.40;92.80
48994;DHT22;34804;49.214;12.276;2022-10-10T04:50:33;5.30;93.00
48994;DHT22;34804;49.214;12.276;2022-10-10T04:53:00;5.40;92.90
48994;DHT22;34804;49.214;12.276;2022-10-10T04:55:27;5.40;93.00
48994;DHT22;34804;49.214;12.276;2022-10-10T04:57:54;5.40;93.00
48994;DHT22;34804;49.214;12.276;2022-10-10T05:00:20;5.40;93.00
48994;DHT22;34804;49.214;12.276;2022-10-10T05:02:47;5.50;93.10
48994;DHT22;34804;49.214;12.276;2022-10-10T05:05:15;5.60;93.30
48994;DHT22;34804;49.214;12.276;2022-10-10T05:07:41;5.60;93.30
48994;DHT22;34804;49.214;12.276;2022-10-10T05:10:08;5.70;92.90
48994;DHT22;34804;49.214;12.276;2022-10-10T05:12:35;5.60;92.40
48994;DHT22;34804;49.214;12.276;2022-10-10T05:15:02;5.60;92.40
48994;DHT22;34804;49.214;12.276;2022-10-10T05:17:29;5.60;92.20
48994;DHT22;34804;49.214;12.276;2022-10-10T05:19:56;5.50;92.50
48994;DHT22;34804;49.214;12.276;2022-10-10T05:22:23;5.50;92.60
48994;DHT22;34804;49.214;12.276;2022-10-10T05:24:50;5.60;92.80
48994;DHT22;34804;49.214;12.276;2022-10-10T05:27:16;5.60;92.90
48994;DHT22;34804;49.214;12.276;2022-10-10T05:29:43;5.60;92.60
48994;DHT22;34804;49.214;12.276;2022-10-10T05:32:10;5.60;92.70
48994;DHT22;34804;49.214;12.276;2022-10-10T05:34:37;5.50;92.70
48994;DHT22;34804;49.214;12.276;2022-10-10T05:37:04;5.60;93.00
48994;DHT22;34804;49.214;12.276;2022-10-10T05:39:31;5.60;92.80
48994;DHT22;34804;49.214;12.276;2022-10-10T05:41:57;5.60;92.80
48994;DHT22;34804;49.214;12.276;2022-10-10T05:44:24;5.60;92.70
48994;DHT22;34804;49.214;12.276;2022-10-10T05:46:51;5.60;92.80
48994;DHT22;34804;49.214;12.276;2022-10-10T05:49:18;5.70;92.80
48994;DHT22;34804;49.214;12.276;2022-10-10T05:51:45;5.70;92.70
48994;DHT22;34804;49.214;12.276;2022-10-10T05:54:12;5.70;92.70
48994;DHT22;34804;49.214;12.276;2022-10-10T05:56:38;5.70;92.80
48994;DHT22;34804;49.214;12.276;2022-10-10T05:59:05;5.80;93.10
48994;DHT22;34804;49.214;12.276;2022-10-10T06:01:32;5.90;93.20
48994;DHT22;34804;49.214;12.276;2022-10-10T06:03:59;5.90;92.80
48994;DHT22;34804;49.214;12.276;2022-10-10T06:06:25;6.00;92.90
48994;DHT22;34804;49.214;12.276;2022-10-10T06:08:52;6.20;92.90
48994;DHT22;34804;49.214;12.276;2022-10-10T06:11:19;6.30;92.80
48994;DHT22;34804;49.214;12.276;2022-10-10T06:13:48;6.40;92.30
48994;DHT22;34804;49.214;12.276;2022-10-10T06:16:24;6.40;91.90
48994;DHT22;34804;49.214;12.276;2022-10-10T06:18:51;6.50;91.70
48994;DHT22;34804;49.214;12.276;2022-10-10T06:21:19;6.60;91.40
48994;DHT22;34804;49.214;12.276;2022-10-10T06:23:45;6.60;91.20
48994;DHT22;34804;49.214;12.276;2022-10-10T06:26:13;6.80;91.10
48994;DHT22;34804;49.214;12.276;2022-10-10T06:28:40;6.90;91.00
48994;DHT22;34804;49.214;12.276;2022-10-10T06:31:13;6.90;90.90
48994;DHT22;34804;49.214;12.276;2022-10-10T06:33:43;7.00;91.10
48994;DHT22;34804;49.214;12.276;2022-10-10T06:36:15;7.20;90.60
48994;DHT22;34804;49.214;12.276;2022-10-10T06:38:43;7.30;90.20
48994;DHT22;34804;49.214;12.276;2022-10-10T06:41:11;7.30;89.90
48994;DHT22;34804;49.214;12.276;2022-10-10T06:43:38;7.40;89.70
48994;DHT22;34804;49.214;12.276;2022-10-10T06:46:06;7.60;89.90
48994;DHT22;34804;49.214;12.276;2022-10-10T06:48:33;7.60;89.60
48994;DHT22;34804;49.214;12.276;2022-10-10T06:51:04;7.70;89.60
48994;DHT22;34804;49.214;12.276;2022-10-10T06:53:32;7.80;89.20
48994;DHT22;34804;49.214;12.276;2022-10-10T06:55:59;7.90;88.90
48994;DHT22;34804;49.214;12.276;2022-10-10T06:58:27;8.10;89.20
48994;DHT22;34804;49.214;12.276;2022-10-10T07:00:57;8.30;88.60
48994;DHT22;34804;49.214;12.276;2022-10-10T07:03:26;8.40;87.90
48994;DHT22;34804;49.214;12.276;2022-10-10T07:05:56;8.70;87.50
48994;DHT22;34804;49.214;12.276;2022-10-10T07:08:24;8.80;87.10
48994;DHT22;34804;49.214;12.276;2022-10-10T07:10:51;8.90;86.40
48994;DHT22;34804;49.214;12.276;2022-10-10T07:13:18;9.00;86.20
48994;DHT22;34804;49.214;12.276;2022-10-10T07:15:44;9.10;85.90
48994;DHT22;34804;49.214;12.276;2022-10-10T07:18:11;9.30;85.50
48994;DHT22;34804;49.214;12.276;2022-10-10T07:20:38;9.30;85.20
48994;DHT22;34804;49.214;12.276;2022-10-10T07:23:05;9.40;84.90
48994;DHT22;34804;49.214;12.276;2022-10-10T07:25:32;9.40;85.10
48994;DHT22;34804;49.214;12.276;2022-10-10T07:27:59;9.50;84.90
48994;DHT22;34804;49.214;12.276;2022-10-10T07:30:26;9.60;84.50
48994;DHT22;34804;49.214;12.276;2022-10-10T07:32:53;9.60;84.50
48994;DHT22;34804;49.214;12.276;2022-10-10T07:35:22;9.80;84.70
48994;DHT22;34804;49.214;12.276;2022-10-10T07:37:53;9.90;84.00
48994;DHT22;34804;49.214;12.276;2022-10-10T07:40:21;9.90;83.70
48994;DHT22;34804;49.214;12.276;2022-10-10T07:42:49;10.00;83.80
48994;DHT22;34804;49.214;12.276;2022-10-10T07:45:16;10.20;83.20
48994;DHT22;34804;49.214;12.276;2022-10-10T07:47:43;10.30;82.90
48994;DHT22;34804;49.214;12.276;2022-10-10T07:50:10;10.40;81.80
48994;DHT22;34804;49.214;12.276;2022-10-10T07:52:38;10.40;81.00
48994;DHT22;34804;49.214;12.276;2022-10-10T07:55:06;10.50;81.40
48994;DHT22;34804;49.214;12.276;2022-10-10T07:57:34;10.60;80.50
48994;DHT22;34804;49.214;12.276;2022-10-10T08:00:04;10.60;80.50
48994;DHT22;34804;49.214;12.276;2022-10-10T08:02:32;10.80;81.90
48994;DHT22;34804;49.214;12.276;2022-10-10T08:04:58;10.80;81.30
48994;DHT22;34804;49.214;12.276;2022-10-10T08:07:25;10.80;80.40
48994;DHT22;34804;49.214;12.276;2022-10-10T08:09:52;10.80;80.30
48994;DHT22;34804;49.214;12.276;2022-10-10T08:12:19;10.90;81.80
48994;DHT22;34804;49.214;12.276;2022-10-10T08:14:45;10.80;80.00
48994;DHT22;34804;49.214;12.276;2022-10-10T08:17:12;10.80;80.80
48994;DHT22;34804;49.214;12.276;2022-10-10T08:19:39;10.90;79.40
48994;DHT22;34804;49.214;12.276;2022-10-10T08:22:06;11.10;80.80
48994;DHT22;34804;49.214;12.276;2022-10-10T08:24:32;11.30;79.80
48994;DHT22;34804;49.214;12.276;2022-10-10T08:27:00;11.30;78.90
48994;DHT22;34804;49.214;12.276;2022-10-10T08:29:27;11.50;80.10
48994;DHT22;34804;49.214;12.276;2022-10-10T08:31:53;11.40;78.10
48994;DHT22;34804;49.214;12.276;2022-10-10T08:34:20;11.60;78.20
48994;DHT22;34804;49.214;12.276;2022-10-10T08:36:47;11.80;79.60
48994;DHT22;34804;49.214;12.276;2022-10-10T08:39:15;11.90;78.20
48994;DHT22;34804;49.214;12.276;2022-10-10T08:41:50;11.90;77.10
48994;DHT22;34804;49.214;12.276;2022-10-10T08:44:19;11.90;76.10
48994;DHT22;34804;49.214;12.276;2022-10-10T08:46:55;11.90;77.50
48994;DHT22;34804;49.214;12.276;2022-10-10T08:49:51;11.80;76.80
48994;DHT22;34804;49.214;12.276;2022-10-10T08:52:35;12.00;76.90
48994;DHT22;34804;49.214;12.276;2022-10-10T08:55:20;12.10;77.90
48994;DHT22;34804;49.214;12.276;2022-10-10T09:00:18;12.10;77.00
48994;DHT22;34804;49.214;12.276;2022-10-10T09:02:56;12.30;77.00
48994;DHT22;34804;49.214;12.276;2022-10-10T09:07:59;12.50;75.00
48994;DHT22;34804;49.214;12.276;2022-10-10T09:11:01;12.70;75.90
48994;DHT22;34804;49.214;12.276;2022-10-10T09:13:34;12.80;74.40
48994;DHT22;34804;49.214;12.276;2022-10-10T09:16:58;12.90;78.10
48994;DHT22;34804;49.214;12.276;2022-10-10T09:19:30;13.10;74.70
48994;DHT22;34804;49.214;12.276;2022-10-10T09:22:04;13.10;75.40
48994;DHT22;34804;49.214;12.276;2022-10-10T09:24:44;13.10;74.70
48994;DHT22;34804;49.214;12.276;2022-10-10T09:27:21;13.10;74.80
48994;DHT22;34804;49.214;12.276;2022-10-10T09:30:13;13.20;75.10
48994;DHT22;34804;49.214;12.276;2022-10-10T09:32:57;13.40;74.60
48994;DHT22;34804;49.214;12.276;2022-10-10T09:35:30;13.50;73.90
48994;DHT22;34804;49.214;12.276;2022-10-10T09:41:16;13.50;73.80
48994;DHT22;34804;49.214;12.276;2022-10-10T09:43:44;13.60;74.90
48994;DHT22;34804;49.214;12.276;2022-10-10T09:46:10;13.70;75.80
48994;DHT22;34804;49.214;12.276;2022-10-10T09:48:40;13.80;74.70
48994;DHT22;34804;49.214;12.276;2022-10-10T09:51:17;13.80;75.20
48994;DHT22;34804;49.214;12.276;2022-10-10T09:53:46;13.80;74.00
48994;DHT22;34804;49.214;12.276;2022-10-10T09:56:24;13.70;75.40
48994;DHT22;34804;49.214;12.276;2022-10-10T09:58:52;13.90;73.90
48994;DHT22;34804;49.214;12.276;2022-10-10T10:01:21;14.10;74.90
48994;DHT22;34804;49.214;12.276;2022-10-10T10:07:10;14.30;75.40
48994;DHT22;34804;49.214;12.276;2022-10-10T10:09:58;14.30;74.10
48994;DHT22;34804;49.214;12.276;2022-10-10T10:12:39;14.40;74.80
48994;DHT22;34804;49.214;12.276;2022-10-10T10:17:45;14.80;72.80
48994;DHT22;34804;49.214;12.276;2022-10-10T10:22:55;14.90;73.00
48994;DHT22;34804;49.214;12.276;2022-10-10T10:25:31;15.00;73.40
48994;DHT22;34804;49.214;12.276;2022-10-10T10:30:38;15.30;72.50
48994;DHT22;34804;49.214;12.276;2022-10-10T10:38:50;15.80;71.40
48994;DHT22;34804;49.214;12.276;2022-10-10T10:47:33;16.50;72.80
48994;DHT22;34804;49.214;12.276;2022-10-10T10:55:26;16.40;68.10
48994;DHT22;34804;49.214;12.276;2022-10-10T10:58:18;16.30;68.50
48994;DHT22;34804;49.214;12.276;2022-10-10T11:01:15;16.30;71.20
48994;DHT22;34804;49.214;12.276;2022-10-10T11:04:16;16.20;70.30
48994;DHT22;34804;49.214;12.276;2022-10-10T11:07:23;16.20;71.70
48994;DHT22;34804;49.214;12.276;2022-10-10T11:12:34;16.30;71.70
48994;DHT22;34804;49.214;12.276;2022-10-10T11:15:13;16.70;72.00
48994;DHT22;34804;49.214;12.276;2022-10-10T11:18:02;16.80;69.00
48994;DHT22;34804;49.214;12.276;2022-10-10T11:20:45;16.60;68.50
48994;DHT22;34804;49.214;12.276;2022-10-10T11:23:21;16.90;70.80
48994;DHT22;34804;49.214;12.276;2022-10-10T11:25:53;17.30;70.00
48994;DHT22;34804;49.214;12.276;2022-10-10T11:28:40;17.80;70.70
48994;DHT22;34804;49.214;12.276;2022-10-10T11:31:30;17.90;67.30
48994;DHT22;34804;49.214;12.276;2022-10-10T11:34:05;17.90;66.90
48994;DHT22;34804;49.214;12.276;2022-10-10T11:36:36;17.80;68.10
48994;DHT22;34804;49.214;12.276;2022-10-10T11:39:10;18.10;67.40
48994;DHT22;34804;49.214;12.276;2022-10-10T11:42:05;18.30;65.00
48994;DHT22;34804;49.214;12.276;2022-10-10T11:44:35;18.20;66.20
48994;DHT22;34804;49.214;12.276;2022-10-10T11:47:30;18.40;65.00
48994;DHT22;34804;49.214;12.276;2022-10-10T11:50:25;18.80;64.70
48994;DHT22;34804;49.214;12.276;2022-10-10T11:56:07;19.40;62.70
48994;DHT22;34804;49.214;12.276;2022-10-10T11:58:45;19.50;62.50
48994;DHT22;34804;49.214;12.276;2022-10-10T12:01:40;19.40;62.00
48994;DHT22;34804;49.214;12.276;2022-10-10T12:04:10;19.40;62.80
48994;DHT22;34804;49.214;12.276;2022-10-10T12:06:46;19.60;63.10
48994;DHT22;34804;49.214;12.276;2022-10-10T12:09:29;19.50;63.50
48994;DHT22;34804;49.214;12.276;2022-10-10T12:12:29;19.00;63.50
48994;DHT22;34804;49.214;12.276;2022-10-10T12:14:59;18.80;67.50
48994;DHT22;34804;49.214;12.276;2022-10-10T12:17:31;18.80;64.90
48994;DHT22;34804;49.214;12.276;2022-10-10T12:20:23;18.60;63.70
48994;DHT22;34804;49.214;12.276;2022-10-10T12:25:45;20.90;60.60
48994;DHT22;34804;49.214;12.276;2022-10-10T12:44:23;24.90;48.70
48994;DHT22;34804;49.214;12.276;2022-10-10T12:49:57;25.40;45.80
48994;DHT22;34804;49.214;12.276;2022-10-10T12:52:27;25.80;46.50
48994;DHT22;34804;49.214;12.276;2022-10-10T12:55:02;25.30;46.20
48994;DHT22;34804;49.214;12.276;2022-10-10T12:57:39;25.10;46.60
48994;DHT22;34804;49.214;12.276;2022-10-10T13:00:15;25.30;47.90
48994;DHT22;34804;49.214;12.276;2022-10-10T13:02:45;25.40;46.80
48994;DHT22;34804;49.214;12.276;2022-10-10T13:05:18;25.00;47.00
48994;DHT22;34804;49.214;12.276;2022-10-10T13:07:47;23.90;48.70
48994;DHT22;34804;49.214;12.276;2022-10-10T13:10:24;22.80;54.10
48994;DHT22;34804;49.214;12.276;2022-10-10T13:15:27;21.00;60.20
48994;DHT22;34804;49.214;12.276;2022-10-10T13:17:54;20.40;60.60
48994;DHT22;34804;49.214;12.276;2022-10-10T13:20:36;20.00;61.90
48994;DHT22;34804;49.214;12.276;2022-10-10T13:23:07;19.60;65.40
48994;DHT22;34804;49.214;12.276;2022-10-10T13:25:37;19.40;66.30
48994;DHT22;34804;49.214;12.276;2022-10-10T13:28:15;19.40;65.80
48994;DHT22;34804;49.214;12.276;2022-10-10T13:30:43;19.40;66.30
48994;DHT22;34804;49.214;12.276;2022-10-10T13:33:19;19.70;64.80
48994;DHT22;34804;49.214;12.276;2022-10-10T13:35:46;19.80;64.40
48994;DHT22;34804;49.214;12.276;2022-10-10T13:38:16;19.60;65.00
48994;DHT22;34804;49.214;12.276;2022-10-10T13:40:43;19.40;62.80
48994;DHT22;34804;49.214;12.276;2022-10-10T13:43:13;19.40;65.00
48994;DHT22;34804;49.214;12.276;2022-10-10T13:45:47;19.30;62.20
48994;DHT22;34804;49.214;12.276;2022-10-10T13:48:18;19.30;62.70
48994;DHT22;34804;49.214;12.276;2022-10-10T13:50:55;19.40;63.10
48994;DHT22;34804;49.214;12.276;2022-10-10T13:59:12;19.40;63.40
48994;DHT22;34804;49.214;12.276;2022-10-10T14:01:45;19.30;63.30
48994;DHT22;34804;49.214;12.276;2022-10-10T14:04:32;19.30;62.50
48994;DHT22;34804;49.214;12.276;2022-10-10T14:07:05;19.40;62.60
48994;DHT22;34804;49.214;12.276;2022-10-10T14:09:41;19.70;64.90
48994;DHT22;34804;49.214;12.276;2022-10-10T14:14:48;19.60;64.40
48994;DHT22;34804;49.214;12.276;2022-10-10T14:17:15;19.50;63.20
48994;DHT22;34804;49.214;12.276;2022-10-10T14:19:43;19.40;63.60
48994;DHT22;34804;49.214;12.276;2022-10-10T14:22:10;19.30;64.70
48994;DHT22;34804;49.214;12.276;2022-10-10T14:24:37;19.10;64.30
48994;DHT22;34804;49.214;12.276;2022-10-10T14:27:19;19.10;66.80
48994;DHT22;34804;49.214;12.276;2022-10-10T14:29:48;19.10;66.10
48994;DHT22;34804;49.214;12.276;2022-10-10T14:32:15;18.80;68.10
48994;DHT22;34804;49.214;12.276;2022-10-10T14:34:43;18.60;69.10
48994;DHT22;34804;49.214;12.276;2022-10-10T14:37:23;18.50;68.90
48994;DHT22;34804;49.214;12.276;2022-10-10T14:39:50;18.30;69.50
48994;DHT22;34804;49.214;12.276;2022-10-10T14:42:18;17.90;70.00
48994;DHT22;34804;49.214;12.276;2022-10-10T14:44:45;17.70;71.50
48994;DHT22;34804;49.214;12.276;2022-10-10T14:47:14;17.40;72.40
48994;DHT22;34804;49.214;12.276;2022-10-10T14:49:42;17.30;73.00
48994;DHT22;34804;49.214;12.276;2022-10-10T14:52:09;17.10;72.60
48994;DHT22;34804;49.214;12.276;2022-10-10T14:54:36;17.00;73.80
48994;DHT22;34804;49.214;12.276;2022-10-10T14:57:02;16.90;74.20
48994;DHT22;34804;49.214;12.276;2022-10-10T14:59:35;16.80;74.60
48994;DHT22;34804;49.214;12.276;2022-10-10T15:02:19;16.70;75.10
48994;DHT22;34804;49.214;12.276;2022-10-10T15:04:47;16.60;75.40
48994;DHT22;34804;49.214;12.276;2022-10-10T15:07:15;16.40;76.10
48994;DHT22;34804;49.214;12.276;2022-10-10T15:09:43;16.40;76.80
48994;DHT22;34804;49.214;12.276;2022-10-10T15:12:31;16.30;76.70
48994;DHT22;34804;49.214;12.276;2022-10-10T15:14:59;16.20;76.90
48994;DHT22;34804;49.214;12.276;2022-10-10T15:17:25;16.10;77.60
48994;DHT22;34804;49.214;12.276;2022-10-10T15:19:52;16.10;77.80
48994;DHT22;34804;49.214;12.276;2022-10-10T15:22:19;16.00;78.20
48994;DHT22;34804;49.214;12.276;2022-10-10T15:24:46;15.90;78.40
48994;DHT22;34804;49.214;12.276;2022-10-10T15:27:13;15.80;78.60
48994;DHT22;34804;49.214;12.276;2022-10-10T15:29:40;15.80;79.10
48994;DHT22;34804;49.214;12.276;2022-10-10T15:32:07;15.80;78.70
48994;DHT22;34804;49.214;12.276;2022-10-10T15:34:34;15.70;79.40
48994;DHT22;34804;49.214;12.276;2022-10-10T15:37:01;15.60;79.30
48994;DHT22;34804;49.214;12.276;2022-10-10T15:39:28;15.50;79.20
48994;DHT22;34804;49.214;12.276;2022-10-10T15:41:56;15.50;79.70
48994;DHT22;34804;49.214;12.276;2022-10-10T15:44:23;15.40;79.30
48994;DHT22;34804;49.214;12.276;2022-10-10T15:46:50;15.40;79.50
48994;DHT22;34804;49.214;12.276;2022-10-10T15:49:17;15.40;79.40
48994;DHT22;34804;49.214;12.276;2022-10-10T15:51:46;15.40;79.60
48994;DHT22;34804;49.214;12.276;2022-10-10T15:54:13;15.30;80.00
48994;DHT22;34804;49.214;12.276;2022-10-10T15:56:40;15.30;80.20
48994;DHT22;34804;49.214;12.276;2022-10-10T15:59:07;15.30;80.80
48994;DHT22;34804;49.214;12.276;2022-10-10T16:01:35;15.30;80.90
48994;DHT22;34804;49.214;12.276;2022-10-10T16:04:03;15.20;81.10
48994;DHT22;34804;49.214;12.276;2022-10-10T16:06:30;15.20;81.10
48994;DHT22;34804;49.214;12.276;2022-10-10T16:08:57;15.20;81.40
48994;DHT22;34804;49.214;12.276;2022-10-10T16:11:44;15.20;81.60
48994;DHT22;34804;49.214;12.276;2022-10-10T16:14:11;15.10;81.70
48994;DHT22;34804;49.214;12.276;2022-10-10T16:16:38;15.10;81.40
48994;DHT22;34804;49.214;12.276;2022-10-10T16:19:04;15.10;81.20
48994;DHT22;34804;49.214;12.276;2022-10-10T16:21:32;15.10;81.30
48994;DHT22;34804;49.214;12.276;2022-10-10T16:23:59;15.00;81.40
48994;DHT22;34804;49.214;12.276;2022-10-10T16:26:28;15.00;81.80
48994;DHT22;34804;49.214;12.276;2022-10-10T16:28:59;15.00;81.80
48994;DHT22;34804;49.214;12.276;2022-10-10T16:31:27;14.90;82.10
48994;DHT22;34804;49.214;12.276;2022-10-10T16:33:56;14.90;82.60
48994;DHT22;34804;49.214;12.276;2022-10-10T16:36:26;14.90;83.00
48994;DHT22;34804;49.214;12.276;2022-10-10T16:38:53;14.80;82.60
48994;DHT22;34804;49.214;12.276;2022-10-10T16:41:24;14.80;82.60
48994;DHT22;34804;49.214;12.276;2022-10-10T16:44:12;14.80;82.80
48994;DHT22;34804;49.214;12.276;2022-10-10T16:46:38;14.70;83.00
48994;DHT22;34804;49.214;12.276;2022-10-10T16:49:05;14.70;82.90
48994;DHT22;34804;49.214;12.276;2022-10-10T16:51:32;14.70;83.00
48994;DHT22;34804;49.214;12.276;2022-10-10T16:54:00;14.60;83.20
48994;DHT22;34804;49.214;12.276;2022-10-10T16:56:28;14.60;83.10
48994;DHT22;34804;49.214;12.276;2022-10-10T16:58:57;14.60;83.00
48994;DHT22;34804;49.214;12.276;2022-10-10T17:01:24;14.60;83.10
48994;DHT22;34804;49.214;12.276;2022-10-10T17:03:52;14.50;83.20
48994;DHT22;34804;49.214;12.276;2022-10-10T17:06:21;14.50;83.20
48994;DHT22;34804;49.214;12.276;2022-10-10T17:08:50;14.50;83.20
48994;DHT22;34804;49.214;12.276;2022-10-10T17:11:19;14.60;83.30
48994;DHT22;34804;49.214;12.276;2022-10-10T17:13:47;14.50;83.50
48994;DHT22;34804;49.214;12.276;2022-10-10T17:16:20;14.50;83.40